Terminal Aerodrome Forecast
Issued by NWS Denver/Boulder, CO

Home | Current Version | Previous Version | Text Only | Print | Product List | Glossary On
Versions: 1 2 3 4 5 6 7 8 9 10 11 12 13 14 15 16 17 18 19 20 21 22 23 24 25 26 27 28 29 30 31 32 33 34 35 36 37 38 39 40 41 42 43 44 45 46 47 48 49 50
000
FTUS45 KBOU 230236 AAB
TAFDEN
TAF AMD
KDEN 230236Z 2303/2406 07008KT P6SM VCSH SCT045 BKN080
      TEMPO 2303/2305 3SM -TSRA BR SCT030 BKN040CB
     FM230500 08009KT P6SM VCSH SCT020 BKN035 OVC050
     FM230600 10005KT 5SM BR BKN020 OVC035
     FM230900 08005KT 2SM BR BKN009 OVC015
      TEMPO 2310/2314 1/2SM FG BKN004
     FM231600 VRB05KT P6SM SCT007 SCT022
     FM231900 13010KT P6SM SCT025 BKN045
      TEMPO 2321/2324 VRB25G35KT 4SM -TSRA BKN020CB OVC040
     FM240100 32012KT P6SM VCTS SCT035CB BKN060=

USA.gov is the U.S. government's official web portal to all federal, state and local government web resources and services.